Time;durP1;ratioP1;P1;durP2;ratioP2;P2;SDS_P1;SDS_P2;PMS_P1;PMS_P2;Temp;Humidity;BMP_temperature;BMP_pressure;BME280_temperature;BME280_humidity;BME280_pressure;Samples;Min_cycle;Max_cycle;Signal;HPM_P1;HPM_P2
2024/01/05 00:59:52;;;;;;;2.10;2.00;;;;;;;1.55;100.00;100211.84;5112686;27;20554;-69
2024/01/05 01:02:21;;;;;;;4.13;2.00;;;;;;;1.53;100.00;100216.50;5103719;28;20199;-70
2024/01/05 01:04:50;;;;;;;1.30;1.20;;;;;;;1.67;100.00;100207.88;5102385;28;20213;-69
2024/01/05 01:07:19;;;;;;;0.80;0.63;;;;;;;1.60;100.00;100206.84;5102150;28;20191;-71
2024/01/05 01:09:48;;;;;;;1.52;1.23;;;;;;;1.70;99.91;100209.38;5110110;28;20203;-70
2024/01/05 01:12:17;;;;;;;1.58;1.45;;;;;;;1.61;100.00;100210.34;5101898;28;20191;-69
2024/01/05 01:14:46;;;;;;;2.35;1.02;;;;;;;1.83;99.89;100198.28;5088113;28;20188;-68
2024/01/05 01:17:18;;;;;;;2.55;2.35;;;;;;;1.82;99.53;100196.59;5097227;28;20187;-69
2024/01/05 01:19:47;;;;;;;2.25;0.88;;;;;;;1.75;99.21;100199.91;5086586;28;20211;-69
2024/01/05 01:22:16;;;;;;;1.40;0.98;;;;;;;1.73;99.28;100195.75;5089545;28;20236;-70
2024/01/05 01:24:45;;;;;;;2.65;1.90;;;;;;;1.79;98.39;100199.59;5095444;28;20237;-69
2024/01/05 01:27:14;;;;;;;0.80;0.60;;;;;;;1.76;97.43;100211.41;5091121;28;20191;-70
2024/01/05 01:29:43;;;;;;;1.23;1.05;;;;;;;1.89;96.06;100206.44;5088951;28;20253;-70
2024/01/05 01:32:12;;;;;;;0.90;0.70;;;;;;;1.92;95.88;100203.47;5092054;28;20687;-70
2024/01/05 01:34:43;;;;;;;1.00;0.90;;;;;;;2.05;95.07;100210.97;5089900;28;20557;-70
2024/01/05 01:37:12;;;;;;;0.90;0.60;;;;;;;1.98;94.39;100209.97;5084184;28;20187;-68
2024/01/05 01:39:41;;;;;;;0.90;0.80;;;;;;;1.91;93.71;100192.94;5093102;28;20694;-70
2024/01/05 01:42:10;;;;;;;1.45;1.20;;;;;;;2.05;93.54;100194.97;5102351;28;20427;-70
2024/01/05 01:44:39;;;;;;;1.25;0.85;;;;;;;2.06;93.15;100196.66;5093739;28;20199;-70
2024/01/05 01:47:08;;;;;;;1.92;1.23;;;;;;;2.01;92.99;100189.13;5093174;28;20270;-70
2024/01/05 01:49:36;;;;;;;4.10;1.23;;;;;;;1.87;93.64;100187.09;5096381;28;20199;-69
2024/01/05 01:52:07;;;;;;;0.98;0.70;;;;;;;1.80;94.34;100186.06;5082701;28;20267;-70
2024/01/05 01:54:38;;;;;;;1.15;1.05;;;;;;;1.88;93.86;100183.44;5090840;28;20214;-70
2024/01/05 01:57:07;;;;;;;2.00;1.48;;;;;;;1.84;93.85;100171.41;5090442;28;20222;-70
2024/01/05 01:59:37;;;;;;;1.05;0.90;;;;;;;1.89;93.13;100173.63;5089230;28;20212;-70
2024/01/05 02:02:06;;;;;;;0.90;0.65;;;;;;;1.85;93.84;100166.91;5087282;28;20330;-70
2024/01/05 02:04:36;;;;;;;1.38;0.98;;;;;;;1.71;93.44;100166.56;5088841;28;20531;-70
2024/01/05 02:07:07;;;;;;;0.80;0.50;;;;;;;1.70;94.59;100164.88;5083602;28;20261;-70
2024/01/05 02:09:36;;;;;;;0.95;0.85;;;;;;;1.68;94.63;100163.38;5077237;28;20640;-70
2024/01/05 02:12:06;;;;;;;1.10;1.00;;;;;;;1.63;94.34;100173.72;5082525;28;20202;-70
2024/01/05 02:14:35;;;;;;;1.00;0.90;;;;;;;1.55;93.95;100179.84;5081578;28;20203;-71
2024/01/05 02:17:04;;;;;;;1.00;0.90;;;;;;;1.67;94.80;100181.22;5080891;28;20554;-69
2024/01/05 02:19:33;;;;;;;2.75;2.55;;;;;;;1.67;94.05;100185.72;5077737;28;20238;-70
2024/01/05 02:22:03;;;;;;;0.90;0.68;;;;;;;1.75;93.97;100180.41;5066947;28;20226;-70
2024/01/05 02:24:33;;;;;;;0.88;0.70;;;;;;;1.72;93.73;100180.72;5074576;28;20731;-70
2024/01/05 02:27:03;;;;;;;1.30;0.80;;;;;;;1.73;94.69;100179.75;5076336;28;20684;-70
2024/01/05 02:29:31;;;;;;;1.80;1.20;;;;;;;1.88;94.01;100177.28;5079545;28;20524;-69
2024/01/05 02:32:00;;;;;;;1.75;1.25;;;;;;;1.91;94.53;100169.78;5075378;28;20245;-70
2024/01/05 02:34:29;;;;;;;0.90;0.70;;;;;;;1.84;94.25;100182.06;5076970;28;20195;-69
2024/01/05 02:36:58;;;;;;;3.50;1.35;;;;;;;1.80;94.13;100186.06;5075510;28;20254;-70
2024/01/05 02:39:27;;;;;;;0.90;0.80;;;;;;;1.82;94.30;100183.25;5074383;28;20200;-71
2024/01/05 02:41:57;;;;;;;1.08;0.85;;;;;;;1.82;94.50;100178.75;5077410;28;20192;-68
2024/01/05 02:44:26;;;;;;;0.80;0.60;;;;;;;1.82;94.78;100177.91;5087494;28;20195;-70
2024/01/05 02:46:55;;;;;;;1.05;0.95;;;;;;;2.03;93.09;100175.63;5070870;28;20216;-70
2024/01/05 02:49:24;;;;;;;1.88;0.95;;;;;;;1.89;93.20;100169.09;5068697;28;20189;-69
2024/01/05 02:51:53;;;;;;;1.13;1.02;;;;;;;1.75;95.18;100156.38;5073414;28;20211;-70
2024/01/05 02:54:22;;;;;;;1.42;0.65;;;;;;;1.71;95.71;100157.72;5072968;28;20192;-69
2024/01/05 02:56:51;;;;;;;2.17;1.35;;;;;;;1.72;96.90;100156.72;5072335;28;20215;-69
2024/01/05 02:59:21;;;;;;;0.80;0.80;;;;;;;1.64;97.02;100154.03;5076747;28;20864;-70
2024/01/05 03:01:51;;;;;;;2.38;1.40;;;;;;;1.58;97.29;100154.69;5069863;28;20195;-69
2024/01/05 03:04:19;;;;;;;0.80;0.60;;;;;;;1.62;96.82;100162.19;5074808;28;20210;-69
2024/01/05 03:06:48;;;;;;;2.30;1.83;;;;;;;1.51;97.68;100149.16;5072700;28;20211;-68
2024/01/05 03:09:17;;;;;;;2.13;1.80;;;;;;;1.44;98.66;100158.81;5075290;28;20188;-71
2024/01/05 03:11:46;;;;;;;4.13;3.13;;;;;;;1.40;100.00;100156.63;5066579;28;20193;-70
2024/01/05 03:14:15;;;;;;;1.00;0.90;;;;;;;1.33;100.00;100150.25;5067811;28;20200;-69
2024/01/05 03:16:45;;;;;;;1.10;0.90;;;;;;;1.24;100.00;100152.91;5077816;28;20246;-70
2024/01/05 03:19:14;;;;;;;2.15;0.90;;;;;;;1.30;100.00;100149.59;5068258;28;20689;-70
2024/01/05 03:21:43;;;;;;;1.10;0.85;;;;;;;1.43;100.00;100140.31;5078421;28;20191;-70
2024/01/05 03:24:12;;;;;;;1.20;0.68;;;;;;;1.31;100.00;100140.59;5071920;28;20264;-70
2024/01/05 03:26:44;;;;;;;0.80;0.70;;;;;;;1.36;100.00;100136.59;5072185;28;20214;-70
2024/01/05 03:29:13;;;;;;;1.13;0.80;;;;;;;1.30;100.00;100132.78;5065027;28;20267;-71
2024/01/05 03:31:46;;;;;;;0.90;0.80;;;;;;;1.22;100.00;100128.22;5070091;28;20200;-70
2024/01/05 03:34:16;;;;;;;6.88;1.33;;;;;;;1.19;100.00;100133.91;5065038;28;20684;-69
2024/01/05 03:36:45;;;;;;;2.20;2.00;;;;;;;1.13;100.00;100118.53;5062114;28;20290;-70
2024/01/05 03:39:14;;;;;;;1.15;0.98;;;;;;;1.08;100.00;100120.84;5068179;28;20633;-69
2024/01/05 03:41:43;;;;;;;0.90;0.70;;;;;;;1.08;100.00;100110.19;5069587;28;20188;-70
2024/01/05 03:44:20;;;;;;;0.80;0.50;;;;;;;1.11;100.00;100114.38;5066066;28;20184;-70
2024/01/05 03:46:51;;;;;;;1.00;0.80;;;;;;;1.00;100.00;100112.84;5075840;28;20215;-70
2024/01/05 03:49:19;;;;;;;0.90;0.70;;;;;;;1.05;100.00;100110.53;5067936;28;20199;-70
2024/01/05 03:51:49;;;;;;;1.00;0.82;;;;;;;1.05;100.00;100110.53;5066617;28;20185;-70
2024/01/05 03:54:18;;;;;;;1.80;0.80;;;;;;;1.10;100.00;100108.22;5066163;28;20730;-69
2024/01/05 03:56:47;;;;;;;1.90;1.60;;;;;;;1.09;100.00;100111.03;5067092;28;20220;-69
2024/01/05 03:59:16;;;;;;;1.55;1.45;;;;;;;1.11;100.00;100109.88;5076374;28;20604;-69
2024/01/05 04:01:46;;;;;;;1.52;1.33;;;;;;;1.13;100.00;100107.88;5072920;28;20200;-70
2024/01/05 04:04:16;;;;;;;1.90;0.88;;;;;;;1.10;100.00;100102.88;5072874;28;20188;-70
2024/01/05 04:06:46;;;;;;;0.80;0.60;;;;;;;1.21;100.00;100102.56;5079419;28;20230;-68
2024/01/05 04:09:15;;;;;;;2.13;1.60;;;;;;;1.16;100.00;100101.41;5074023;28;20241;-69
2024/01/05 04:11:44;;;;;;;2.17;1.70;;;;;;;1.11;100.00;100103.72;5071335;28;20220;-70
2024/01/05 04:14:13;;;;;;;1.10;0.90;;;;;;;1.04;100.00;100105.34;5073796;28;20188;-67
2024/01/05 04:16:42;;;;;;;2.53;2.10;;;;;;;1.14;100.00;100093.56;5067970;28;20645;-69
2024/01/05 04:19:11;;;;;;;2.85;2.55;;;;;;;1.19;100.00;100099.25;5082190;28;20199;-69
2024/01/05 04:21:42;;;;;;;0.80;0.70;;;;;;;1.17;100.00;100097.72;5070031;28;20657;-69
2024/01/05 04:24:12;;;;;;;0.80;0.70;;;;;;;1.10;100.00;100094.91;5074303;28;20191;-70
2024/01/05 04:26:41;;;;;;;1.95;1.45;;;;;;;1.02;100.00;100097.50;5073233;28;20222;-70
2024/01/05 04:29:10;;;;;;;0.90;0.80;;;;;;;1.09;100.00;100101.22;5066791;28;20189;-69
2024/01/05 04:31:39;;;;;;;0.80;0.57;;;;;;;1.03;100.00;100083.19;5070992;28;20192;-69
2024/01/05 04:34:08;;;;;;;3.05;1.00;;;;;;;1.03;100.00;100075.19;5072298;28;20215;-70
2024/01/05 04:36:37;;;;;;;2.00;1.90;;;;;;;0.98;100.00;100093.50;5073607;28;20219;-70
2024/01/05 04:39:09;;;;;;;2.13;2.03;;;;;;;1.07;100.00;100087.19;5074613;28;20192;-70
2024/01/05 04:41:39;;;;;;;1.42;1.05;;;;;;;1.17;100.00;100087.06;5077110;28;20215;-69
2024/01/05 04:44:08;;;;;;;1.63;1.17;;;;;;;1.10;100.00;100091.38;5072951;28;20188;-71
2024/01/05 04:46:37;;;;;;;1.13;0.98;;;;;;;1.16;100.00;100080.09;5067925;28;20236;-69
2024/01/05 04:49:06;;;;;;;0.98;0.88;;;;;;;1.10;100.00;100080.72;5066560;28;20598;-70
2024/01/05 04:51:35;;;;;;;2.45;1.00;;;;;;;1.08;100.00;100078.22;5073263;28;20188;-70
2024/01/05 04:54:36;;;;;;;0.90;0.70;;;;;;;1.08;100.00;100075.56;5076513;28;20196;-70
2024/01/05 04:57:05;;;;;;;0.80;0.60;;;;;;;1.17;100.00;100076.41;5080553;28;20232;-71
2024/01/05 04:59:34;;;;;;;0.90;0.80;;;;;;;1.07;100.00;100071.22;5081391;28;20211;-70
2024/01/05 05:02:03;;;;;;;0.80;0.68;;;;;;;1.01;100.00;100073.72;5081161;28;20250;-70
2024/01/05 05:04:32;;;;;;;1.35;1.25;;;;;;;1.01;100.00;100073.72;5066937;28;20254;-69
2024/01/05 05:07:01;;;;;;;2.08;1.17;;;;;;;0.95;100.00;100067.19;5075247;28;20216;-69
2024/01/05 05:09:30;;;;;;;1.30;1.20;;;;;;;0.90;100.00;100061.50;5078520;28;20187;-69
2024/01/05 05:12:01;;;;;;;0.85;0.65;;;;;;;0.89;100.00;100057.16;5072258;28;20614;-69
2024/01/05 05:14:30;;;;;;;1.42;1.33;;;;;;;0.90;100.00;100052.69;5069869;28;20190;-69
2024/01/05 05:16:59;;;;;;;1.70;0.77;;;;;;;0.90;100.00;100047.34;5074537;28;20663;-70
2024/01/05 05:19:27;;;;;;;1.02;0.93;;;;;;;0.80;100.00;100026.19;5072020;28;20210;-69
2024/01/05 05:21:56;;;;;;;1.10;0.93;;;;;;;0.77;100.00;100034.50;5075787;28;20226;-71
2024/01/05 05:24:25;;;;;;;1.40;1.27;;;;;;;0.76;100.00;100032.81;5067494;28;20196;-69
2024/01/05 05:26:54;;;;;;;5.60;1.55;;;;;;;0.74;100.00;100024.97;5064127;28;20214;-72
2024/01/05 05:29:25;;;;;;;1.63;1.35;;;;;;;0.73;100.00;100030.47;5077335;28;20660;-70
2024/01/05 05:31:54;;;;;;;0.90;0.60;;;;;;;0.80;100.00;100024.34;5068552;28;20199;-70
2024/01/05 05:34:23;;;;;;;1.33;0.90;;;;;;;0.83;100.00;100020.50;5069337;28;20200;-71
2024/01/05 05:36:52;;;;;;;0.80;0.50;;;;;;;0.70;100.00;100020.97;5063714;28;20212;-68
2024/01/05 05:39:21;;;;;;;0.90;0.70;;;;;;;0.78;100.00;100026.31;5071677;28;20194;-70
2024/01/05 05:41:50;;;;;;;1.30;1.20;;;;;;;0.77;100.00;100015.84;5068719;28;20220;-69
2024/01/05 05:44:19;;;;;;;0.80;0.60;;;;;;;0.67;100.00;100020.47;5063639;28;20195;-69
2024/01/05 05:46:49;;;;;;;1.27;1.17;;;;;;;0.57;100.00;100025.06;5074296;28;20270;-71
2024/01/05 05:49:18;;;;;;;4.15;0.98;;;;;;;0.74;100.00;100029.47;5080065;28;20196;-69
2024/01/05 05:51:47;;;;;;;1.38;1.05;;;;;;;0.64;100.00;100026.09;5079646;28;20196;-71
2024/01/05 05:54:16;;;;;;;1.33;1.10;;;;;;;0.68;100.00;100027.44;5072685;28;20222;-67
2024/01/05 05:56:45;;;;;;;2.28;2.08;;;;;;;0.60;100.00;100028.25;5078396;28;20216;-68
2024/01/05 05:59:14;;;;;;;1.05;0.95;;;;;;;0.66;100.00;100037.44;5071519;28;20601;-69
2024/01/05 06:01:44;;;;;;;3.45;1.65;;;;;;;0.76;100.00;100038.16;5064469;28;20208;-71
2024/01/05 06:04:17;;;;;;;1.52;1.38;;;;;;;0.79;100.00;100029.81;5067556;28;20192;-70
2024/01/05 06:06:46;;;;;;;1.05;0.95;;;;;;;0.71;100.00;100037.78;5078573;28;20713;-70
2024/01/05 06:09:16;;;;;;;0.80;0.50;;;;;;;0.66;100.00;100045.41;5072044;28;20279;-70
2024/01/05 06:11:45;;;;;;;1.98;1.77;;;;;;;0.71;100.00;100053.75;5076318;28;20600;-66
2024/01/05 06:14:14;;;;;;;1.42;0.88;;;;;;;0.67;100.00;100047.94;5070714;28;20263;-66
2024/01/05 06:16:43;;;;;;;4.00;3.80;;;;;;;0.64;100.00;100060.72;5075520;28;20690;-67
2024/01/05 06:19:12;;;;;;;1.15;0.85;;;;;;;0.80;100.00;100068.78;5081435;28;20193;-65
2024/01/05 06:21:42;;;;;;;0.80;0.70;;;;;;;0.85;100.00;100062.00;5063934;28;20675;-66
2024/01/05 06:24:11;;;;;;;3.20;2.05;;;;;;;0.81;100.00;100062.47;5080208;28;20273;-65
2024/01/05 06:26:40;;;;;;;1.13;0.70;;;;;;;0.80;100.00;100063.47;5075046;28;20247;-66
2024/01/05 06:29:09;;;;;;;0.80;0.50;;;;;;;0.75;100.00;100057.78;5075825;28;20310;-66
2024/01/05 06:31:38;;;;;;;2.55;0.77;;;;;;;0.84;100.00;100076.28;5065453;28;20238;-66
2024/01/05 06:34:07;;;;;;;1.90;1.70;;;;;;;0.83;100.00;100079.09;5069633;28;20192;-66
2024/01/05 06:36:36;;;;;;;0.85;0.70;;;;;;;0.86;100.00;100079.66;5072789;28;20218;-67
2024/01/05 06:39:07;;;;;;;1.15;1.02;;;;;;;0.99;100.00;100092.50;5063267;28;20188;-66
2024/01/05 06:41:36;;;;;;;1.70;1.48;;;;;;;0.90;100.00;100089.97;5073908;28;20203;-66
2024/01/05 06:44:05;;;;;;;1.65;1.55;;;;;;;0.77;100.00;100091.25;5069552;28;20188;-66
2024/01/05 06:46:34;;;;;;;0.95;0.85;;;;;;;0.78;100.00;100089.41;5064143;28;20231;-66
2024/01/05 06:49:03;;;;;;;1.25;1.15;;;;;;;0.70;100.00;100084.03;5072054;28;20184;-67
2024/01/05 06:51:38;;;;;;;1.08;0.98;;;;;;;0.65;100.00;100092.50;5073868;28;20561;-66
2024/01/05 06:54:08;;;;;;;0.90;0.68;;;;;;;0.51;100.00;100095.75;5074100;28;20187;-66
2024/01/05 06:56:37;;;;;;;0.80;0.63;;;;;;;0.61;100.00;100090.31;5068913;28;20236;-70
2024/01/05 06:59:06;;;;;;;5.60;1.33;;;;;;;0.51;100.00;100092.25;5073311;28;20195;-67
2024/01/05 07:01:35;;;;;;;1.20;1.02;;;;;;;0.50;100.00;100090.56;5075021;28;20698;-66
2024/01/05 07:04:07;;;;;;;0.80;0.50;;;;;;;0.55;100.00;100093.59;5061345;28;20195;-67
2024/01/05 07:06:41;;;;;;;1.40;0.82;;;;;;;0.48;100.00;100092.56;5062103;28;20628;-66
2024/01/05 07:09:13;;;;;;;1.20;1.10;;;;;;;0.43;100.00;100088.56;5068299;28;20196;-68
2024/01/05 07:11:42;;;;;;;1.13;1.02;;;;;;;0.38;100.00;100084.69;5072195;28;20654;-67
2024/01/05 07:14:12;;;;;;;0.80;0.50;;;;;;;0.44;100.00;100074.25;5072591;28;20187;-65
2024/01/05 07:16:41;;;;;;;2.25;1.17;;;;;;;0.41;100.00;100071.91;5072128;28;20255;-68
2024/01/05 07:19:09;;;;;;;3.08;1.30;;;;;;;0.47;100.00;100066.94;5071541;28;20220;-66
2024/01/05 07:21:43;;;;;;;4.70;1.77;;;;;;;0.39;100.00;100065.88;5066655;28;20231;-66
2024/01/05 07:24:16;;;;;;;1.30;0.85;;;;;;;0.31;100.00;100062.34;5067899;28;20661;-65
2024/01/05 07:26:45;;;;;;;1.92;1.83;;;;;;;0.26;100.00;100065.47;5067467;28;20262;-68
2024/01/05 07:29:14;;;;;;;2.10;1.80;;;;;;;0.32;100.00;100062.22;5058956;28;20189;-66
2024/01/05 07:31:43;;;;;;;1.42;1.05;;;;;;;0.41;100.00;100063.91;5067321;28;20189;-67
2024/01/05 07:34:12;;;;;;;1.88;1.65;;;;;;;0.31;100.00;100049.88;5073608;28;20280;-67
2024/01/05 07:36:43;;;;;;;1.13;1.02;;;;;;;0.21;100.00;100057.13;5071096;28;20223;-66
2024/01/05 07:39:12;;;;;;;2.55;0.98;;;;;;;0.14;100.00;100056.09;5071738;28;20188;-67
2024/01/05 07:41:42;;;;;;;1.38;1.27;;;;;;;0.23;100.00;100055.16;5076404;28;20214;-66
2024/01/05 07:44:12;;;;;;;2.75;2.55;;;;;;;0.20;100.00;100049.28;5073899;28;20198;-67
2024/01/05 07:46:42;;;;;;;1.92;1.58;;;;;;;0.12;100.00;100041.28;5078918;28;20216;-66
2024/01/05 07:49:11;;;;;;;1.73;1.63;;;;;;;0.16;100.00;100042.63;5075956;28;20200;-67
2024/01/05 07:51:40;;;;;;;0.90;0.75;;;;;;;0.23;100.00;100044.53;5071479;28;20192;-67
2024/01/05 07:54:10;;;;;;;1.38;1.00;;;;;;;0.28;100.00;100039.56;5071549;28;20686;-66
2024/01/05 07:56:39;;;;;;;2.75;2.55;;;;;;;0.28;100.00;100052.88;5073012;28;20215;-68
2024/01/05 07:59:09;;;;;;;1.85;1.30;;;;;;;0.35;100.00;100047.72;5068975;28;20200;-66
2024/01/05 08:01:38;;;;;;;3.50;2.05;;;;;;;0.32;100.00;100038.25;5073354;28;20212;-67
2024/01/05 08:04:07;;;;;;;1.60;1.25;;;;;;;0.31;100.00;100041.06;5075386;28;20183;-66
2024/01/05 08:06:37;;;;;;;1.20;1.10;;;;;;;0.30;100.00;100042.88;5058742;28;20294;-66
2024/01/05 08:09:06;;;;;;;3.25;1.30;;;;;;;0.31;100.00;100043.72;5070955;28;20203;-68
2024/01/05 08:11:35;;;;;;;0.93;0.82;;;;;;;0.28;100.00;100052.03;5072851;28;20212;-67
2024/01/05 08:14:07;;;;;;;0.90;0.75;;;;;;;0.27;100.00;100050.34;5064926;28;20185;-67
2024/01/05 08:16:37;;;;;;;1.25;1.15;;;;;;;0.29;100.00;100051.03;5066626;28;20207;-67
2024/01/05 08:19:06;;;;;;;1.20;1.10;;;;;;;0.32;100.00;100048.91;5069756;28;20184;-67
2024/01/05 08:21:36;;;;;;;1.38;1.27;;;;;;;0.37;100.00;100046.59;5072906;28;20207;-66
2024/01/05 08:24:05;;;;;;;1.30;0.80;;;;;;;0.44;100.00;100050.28;5073134;28;20241;-67
2024/01/05 08:26:34;;;;;;;2.67;2.55;;;;;;;0.39;100.00;100049.09;5063510;28;20311;-67
2024/01/05 08:29:03;;;;;;;2.45;2.00;;;;;;;0.44;100.00;100047.63;5067717;28;20251;-68
2024/01/05 08:31:31;;;;;;;0.90;0.70;;;;;;;0.45;100.00;100053.78;5071280;28;20192;-66
2024/01/05 08:34:02;;;;;;;2.17;2.08;;;;;;;0.51;100.00;100055.81;5072639;28;20199;-65
2024/01/05 08:36:32;;;;;;;1.70;1.60;;;;;;;0.51;100.00;100058.47;5072834;28;20579;-67
2024/01/05 08:39:01;;;;;;;1.70;1.60;;;;;;;0.49;100.00;100054.28;5083321;28;20195;-66
2024/01/05 08:41:30;;;;;;;2.60;2.30;;;;;;;0.60;100.00;100048.72;5070118;28;20188;-66
2024/01/05 08:43:59;;;;;;;1.75;1.65;;;;;;;0.64;100.00;100042.06;5069872;28;20599;-66
2024/01/05 08:46:29;;;;;;;1.42;1.00;;;;;;;0.65;100.00;100049.91;5062752;28;20274;-66
2024/01/05 08:48:58;;;;;;;4.60;2.65;;;;;;;0.70;100.00;100046.75;5072686;28;20196;-68
2024/01/05 08:51:29;;;;;;;3.38;3.08;;;;;;;0.71;100.00;100045.78;5071461;28;20211;-67
2024/01/05 08:54:01;;;;;;;1.33;1.20;;;;;;;0.65;100.00;100033.94;5058016;28;20271;-67
2024/01/05 08:56:31;;;;;;;2.13;1.65;;;;;;;0.67;100.00;100025.78;5074014;28;20645;-67
2024/01/05 08:59:00;;;;;;;2.85;2.55;;;;;;;0.68;100.00;100030.09;5069544;28;20199;-66
2024/01/05 09:01:32;;;;;;;1.65;1.52;;;;;;;0.70;100.00;100022.81;5075477;28;20250;-66
2024/01/05 09:04:03;;;;;;;1.05;0.82;;;;;;;0.74;100.00;100027.63;5072420;28;20196;-67
2024/01/05 09:06:33;;;;;;;1.15;1.05;;;;;;;0.70;100.00;100025.47;5073872;28;20211;-67
2024/01/05 09:09:02;;;;;;;2.65;1.67;;;;;;;0.67;100.00;100033.78;5066812;28;20202;-67
2024/01/05 09:11:32;;;;;;;1.10;0.82;;;;;;;0.68;100.00;100025.63;5065926;28;20237;-67
2024/01/05 09:14:02;;;;;;;1.75;1.50;;;;;;;0.63;100.00;100019.13;5069901;28;20189;-67
2024/01/05 09:16:30;;;;;;;1.40;1.20;;;;;;;0.68;100.00;100024.78;5072397;28;20230;-67
2024/01/05 09:18:59;;;;;;;2.28;1.33;;;;;;;0.64;100.00;100021.59;5073921;28;20196;-66
2024/01/05 09:21:28;;;;;;;1.25;1.15;;;;;;;0.73;100.00;100025.97;5079856;28;20214;-69
2024/01/05 09:23:59;;;;;;;1.85;1.73;;;;;;;0.62;100.00;100033.41;5085526;28;20266;-66
2024/01/05 09:26:28;;;;;;;2.78;1.55;;;;;;;0.67;100.00;100018.66;5077992;28;20216;-66
2024/01/05 09:28:57;;;;;;;1.75;1.55;;;;;;;0.70;100.00;100017.47;5070131;28;20222;-66
2024/01/05 09:31:27;;;;;;;0.95;0.85;;;;;;;0.68;100.00;100016.78;5078189;28;20631;-66
2024/01/05 09:33:57;;;;;;;1.30;1.13;;;;;;;0.76;100.00;100011.50;5076021;28;20241;-67
2024/01/05 09:36:26;;;;;;;0.80;0.65;;;;;;;0.74;100.00;100018.81;5065530;28;20243;-65
2024/01/05 09:38:55;;;;;;;5.10;1.85;;;;;;;0.86;100.00;100017.53;5075225;28;20612;-63
2024/01/05 09:41:25;;;;;;;0.80;0.68;;;;;;;0.78;100.00;100022.81;5076514;28;20245;-67
2024/01/05 09:43:55;;;;;;;2.95;1.15;;;;;;;0.70;100.00;100020.97;5068226;28;20205;-66
2024/01/05 09:46:24;;;;;;;1.00;0.90;;;;;;;0.71;100.00;100019.16;5068561;28;20216;-67
2024/01/05 09:48:53;;;;;;;0.98;0.88;;;;;;;0.67;100.00;100015.16;5076054;28;20192;-65
2024/01/05 09:51:23;;;;;;;1.77;1.67;;;;;;;0.69;100.00;100013.13;5056676;28;20189;-66
2024/01/05 09:53:52;;;;;;;2.42;2.33;;;;;;;0.72;100.00;100007.50;5079882;28;20192;-66
2024/01/05 09:56:25;;;;;;;2.88;2.15;;;;;;;0.69;100.00;100003.31;5074226;28;20204;-66
2024/01/05 09:58:54;;;;;;;3.00;2.80;;;;;;;0.85;100.00;100003.38;5067981;28;20208;-67
2024/01/05 10:01:26;;;;;;;1.55;1.45;;;;;;;0.90;100.00;100005.56;5071419;28;20617;-67
2024/01/05 10:03:56;;;;;;;3.33;3.13;;;;;;;0.86;100.00;100017.53;5063063;28;20207;-67
2024/01/05 10:06:26;;;;;;;0.90;0.77;;;;;;;0.82;100.00;100011.69;5072184;28;20640;-66
2024/01/05 10:08:56;;;;;;;5.03;2.45;;;;;;;0.98;100.00;100002.91;5069181;28;20184;-66
2024/01/05 10:11:34;;;;;;;1.25;1.15;;;;;;;0.97;100.00;99998.59;5071373;28;20192;-66
2024/01/05 10:14:07;;;;;;;1.25;1.00;;;;;;;1.08;100.00;99989.47;5061345;28;20608;-66
2024/01/05 10:16:38;;;;;;;5.30;3.08;;;;;;;1.10;100.00;99985.66;5065289;28;20559;-67
2024/01/05 10:19:12;;;;;;;1.92;1.83;;;;;;;1.05;100.00;99993.28;5074159;28;20555;-66
2024/01/05 10:21:43;;;;;;;1.05;0.95;;;;;;;0.95;100.00;99984.59;5073555;28;20241;-66
2024/01/05 10:24:17;;;;;;;4.13;1.90;;;;;;;0.98;100.00;99984.28;5076639;28;20694;-67
2024/01/05 10:27:07;;;;;;;2.78;1.05;;;;;;;1.02;100.00;99985.59;5072837;28;20555;-66
2024/01/05 10:29:37;;;;;;;0.90;0.70;;;;;;;0.96;100.00;99994.28;5067966;28;20755;-68
2024/01/05 10:32:14;;;;;;;1.52;1.25;;;;;;;0.91;100.00;99980.59;5066270;28;20682;-67
2024/01/05 10:34:45;;;;;;;2.45;2.03;;;;;;;1.05;100.00;99977.31;5075263;28;20650;-65
2024/01/05 10:37:15;;;;;;;1.05;0.90;;;;;;;1.01;100.00;99978.63;5075550;28;20586;-66
2024/01/05 10:39:48;;;;;;;3.65;1.75;;;;;;;0.99;100.00;99975.28;5075164;28;20662;-67
2024/01/05 10:42:22;;;;;;;1.00;0.70;;;;;;;1.03;100.00;99973.97;5076255;28;20253;-66
2024/01/05 10:44:52;;;;;;;1.00;0.90;;;;;;;1.10;100.00;99969.66;5075124;28;20751;-68
2024/01/05 10:47:22;;;;;;;1.00;0.73;;;;;;;1.12;100.00;99977.47;5073305;28;20188;-67
2024/01/05 10:49:52;;;;;;;1.40;1.30;;;;;;;0.99;100.00;99975.28;5061878;28;20551;-67
2024/01/05 10:52:23;;;;;;;2.75;1.95;;;;;;;0.92;100.00;99966.25;5073011;28;20238;-67
2024/01/05 10:54:54;;;;;;;2.65;1.98;;;;;;;0.92;100.00;99960.94;5075071;28;20564;-68
2024/01/05 10:57:24;;;;;;;4.13;1.60;;;;;;;0.93;100.00;99957.28;5067276;28;20206;-66
2024/01/05 10:59:55;;;;;;;1.88;1.77;;;;;;;0.90;100.00;99949.63;5070776;28;20207;-66
2024/01/05 11:02:32;;;;;;;1.10;1.00;;;;;;;0.93;100.00;99941.31;5070239;28;20663;-67
2024/01/05 11:05:07;;;;;;;1.08;0.98;;;;;;;0.99;100.00;99939.81;5072638;28;20609;-66
2024/01/05 11:07:37;;;;;;;1.33;0.98;;;;;;;1.04;100.00;99932.16;5071961;28;20241;-66
2024/01/05 11:10:22;;;;;;;3.35;1.77;;;;;;;0.95;100.00;99918.00;5076499;28;20192;-66
2024/01/05 11:13:09;;;;;;;1.42;0.80;;;;;;;0.87;100.00;99920.69;5067692;28;20196;-67
2024/01/05 11:15:53;;;;;;;1.33;0.73;;;;;;;0.81;100.00;99906.19;5075219;28;20306;-67
2024/01/05 11:18:48;;;;;;;2.33;2.13;;;;;;;0.83;100.00;99903.31;5076074;28;20200;-67
2024/01/05 11:21:23;;;;;;;3.33;1.83;;;;;;;0.73;100.00;99897.31;5077315;28;20198;-67
2024/01/05 11:23:55;;;;;;;1.52;1.33;;;;;;;0.82;100.00;99904.34;5074136;28;20210;-66
2024/01/05 11:26:34;;;;;;;1.25;0.88;;;;;;;0.85;100.00;99899.53;5075142;28;20220;-67
2024/01/05 11:29:05;;;;;;;1.15;1.05;;;;;;;0.91;100.00;99903.38;5075182;28;20283;-65
2024/01/05 11:31:56;;;;;;;0.80;0.60;;;;;;;0.87;100.00;99904.69;5076508;28;20188;-66
2024/01/05 11:34:35;;;;;;;6.57;1.83;;;;;;;0.84;100.00;99905.84;5065898;28;20181;-66
2024/01/05 11:37:05;;;;;;;0.80;0.57;;;;;;;0.85;100.00;99893.34;5062546;28;20205;-66
2024/01/05 11:39:46;;;;;;;1.90;0.75;;;;;;;0.88;100.00;99891.19;5070755;28;20195;-66
2024/01/05 11:42:33;;;;;;;0.90;0.60;;;;;;;0.83;100.00;99876.69;5070892;28;20196;-68
2024/01/05 11:45:05;;;;;;;2.45;1.85;;;;;;;0.91;100.00;99871.41;5061461;28;20230;-67
2024/01/05 11:47:41;;;;;;;1.85;1.75;;;;;;;0.90;100.00;99877.72;5074040;28;20196;-66
2024/01/05 11:50:27;;;;;;;1.90;1.60;;;;;;;0.78;100.00;99868.38;5068542;28;20525;-65
2024/01/05 11:53:14;;;;;;;1.85;1.15;;;;;;;0.84;100.00;99847.25;5073711;28;20188;-66
2024/01/05 11:55:50;;;;;;;6.15;3.40;;;;;;;0.87;100.00;99848.75;5069174;28;20214;-66
2024/01/05 11:58:20;;;;;;;1.55;1.45;;;;;;;0.72;100.00;99842.41;5070928;28;20283;-66
2024/01/05 12:00:51;;;;;;;0.95;0.82;;;;;;;0.77;100.00;99842.75;5071762;28;20188;-66
2024/01/05 12:03:23;;;;;;;2.65;1.60;;;;;;;0.84;100.00;99847.25;5072536;28;20199;-67
2024/01/05 12:05:57;;;;;;;2.60;2.10;;;;;;;0.84;100.00;99851.75;5070309;28;20690;-66
2024/01/05 12:08:26;;;;;;;1.10;0.88;;;;;;;0.92;100.00;99849.06;5073596;28;20204;-66
2024/01/05 12:10:56;;;;;;;1.02;0.80;;;;;;;0.89;100.00;99849.41;5072348;28;20204;-66
2024/01/05 12:13:27;;;;;;;1.45;1.35;;;;;;;0.82;100.00;99843.09;5073018;28;20702;-66
2024/01/05 12:15:58;;;;;;;1.80;1.38;;;;;;;0.84;100.00;99857.06;5065430;28;20218;-66
2024/01/05 12:18:31;;;;;;;2.75;2.42;;;;;;;0.89;100.00;99857.41;5068652;28;20195;-66
2024/01/05 12:21:07;;;;;;;5.50;1.00;;;;;;;0.96;100.00;99863.75;5066904;28;20188;-66
2024/01/05 12:23:38;;;;;;;1.10;1.00;;;;;;;0.96;100.00;99865.56;5081009;28;20194;-66
2024/01/05 12:26:08;;;;;;;17.67;1.50;;;;;;;0.85;100.00;99859.56;5067144;28;20216;-65
2024/01/05 12:28:41;;;;;;;1.38;1.27;;;;;;;0.90;100.00;99856.41;5076607;28;20250;-67
2024/01/05 12:31:13;;;;;;;1.10;1.00;;;;;;;0.91;100.00;99852.75;5072227;28;20234;-67
2024/01/05 12:33:43;;;;;;;0.95;0.85;;;;;;;0.97;100.00;99854.72;5068715;28;20188;-66
2024/01/05 12:36:25;;;;;;;1.50;1.05;;;;;;;0.99;100.00;99834.09;5067513;28;20786;-65
2024/01/05 12:38:55;;;;;;;1.38;1.27;;;;;;;0.97;100.00;99835.28;5067586;28;20187;-68
2024/01/05 12:41:24;;;;;;;1.10;1.00;;;;;;;0.95;100.00;99842.59;5069088;28;20301;-66
2024/01/05 12:44:18;;;;;;;2.45;1.65;;;;;;;1.00;100.00;99838.44;5078756;28;20291;-65